Time;durP1;ratioP1;P1;durP2;ratioP2;P2;SDS_P1;SDS_P2;PMS_P1;PMS_P2;Temp;Humidity;BMP_temperature;BMP_pressure;BME280_temperature;BME280_humidity;BME280_pressure;Samples;Min_cycle;Max_cycle;Signal;HPM_P1;HPM_P2
2021/08/29 00:00:10;;;;;;;20.25;13.85;;;;;;;13.54;84.24;96326.97;1711444;82;21138;-82
2021/08/29 00:02:37;;;;;;;29.65;19.32;;;;;;;13.56;84.25;96331.47;1707097;82;21052;-81
2021/08/29 00:05:05;;;;;;;19.62;14.18;;;;;;;13.57;84.22;96330.47;1713524;82;20976;-82
2021/08/29 00:07:31;;;;;;;19.40;12.47;;;;;;;13.56;84.12;96330.67;1714459;81;21004;-81
2021/08/29 00:09:57;;;;;;;13.03;8.68;;;;;;;13.53;84.29;96336.30;1716563;81;21086;-81
2021/08/29 00:12:23;;;;;;;14.33;8.55;;;;;;;13.50;84.31;96337.02;1703569;83;21428;-82
2021/08/29 00:14:48;;;;;;;13.45;8.20;;;;;;;13.52;84.44;96342.02;1687126;82;21033;-81
2021/08/29 00:17:14;;;;;;;9.85;6.70;;;;;;;13.52;84.39;96339.42;1723612;81;21998;-81
2021/08/29 00:19:40;;;;;;;7.70;5.33;;;;;;;13.55;84.36;96336.91;1719858;82;20966;-81
2021/08/29 00:22:06;;;;;;;5.92;3.98;;;;;;;13.55;84.30;96330.38;1713501;81;20956;-82
2021/08/29 00:24:32;;;;;;;5.37;3.90;;;;;;;13.51;84.32;96332.09;1730218;82;21380;-82
2021/08/29 00:26:58;;;;;;;4.67;3.47;;;;;;;13.50;84.55;96327.04;1708982;82;21146;-81
2021/08/29 00:29:23;;;;;;;5.42;3.42;;;;;;;13.46;84.71;96318.02;1711785;82;21077;-82
2021/08/29 00:31:49;;;;;;;5.20;3.15;;;;;;;13.45;84.58;96325.04;1705240;82;21062;-81
2021/08/29 00:34:16;;;;;;;4.22;3.02;;;;;;;13.47;84.46;96319.62;1714343;82;21098;-82
2021/08/29 00:36:42;;;;;;;3.67;2.87;;;;;;;13.49;84.50;96325.44;1705448;82;21043;-81
2021/08/29 00:39:08;;;;;;;5.70;2.67;;;;;;;13.48;84.44;96322.02;1711779;82;21059;-82
2021/08/29 00:41:34;;;;;;;3.45;2.90;;;;;;;13.49;84.50;96318.91;1705092;82;21544;-81
2021/08/29 00:44:01;;;;;;;3.75;2.65;;;;;;;13.46;84.53;96318.81;1711088;82;21022;-82
2021/08/29 00:46:27;;;;;;;3.72;2.30;;;;;;;13.44;84.48;96314.30;1709892;82;20980;-81
2021/08/29 00:48:52;;;;;;;3.80;2.65;;;;;;;13.40;84.47;96310.49;1676875;82;21917;-81
2021/08/29 00:51:18;;;;;;;5.22;2.90;;;;;;;13.39;84.35;96313.31;1720318;82;21010;-82
2021/08/29 00:53:53;;;;;;;5.92;2.87;;;;;;;13.30;84.25;96302.25;1730665;81;21355;-82
2021/08/29 00:56:20;;;;;;;3.65;2.60;;;;;;;13.32;84.32;96310.67;1735494;81;21424;-83
2021/08/29 00:58:47;;;;;;;5.10;2.58;;;;;;;13.29;84.31;96306.37;1717472;82;21075;-81
2021/08/29 01:01:18;;;;;;;5.37;2.75;;;;;;;13.24;84.39;96308.28;1683089;82;21000;-81
2021/08/29 01:03:44;;;;;;;5.03;2.67;;;;;;;13.23;84.56;96309.28;1703204;82;21028;-81
2021/08/29 01:06:31;;;;;;;3.47;2.25;;;;;;;13.20;84.35;96303.17;1738749;81;21474;-82
2021/08/29 01:09:01;;;;;;;4.30;2.65;;;;;;;13.17;84.60;96306.92;1704096;83;21469;-81
2021/08/29 01:11:27;;;;;;;4.92;2.50;;;;;;;13.18;84.68;96309.89;1736201;81;21389;-81
2021/08/29 01:14:04;;;;;;;5.37;2.60;;;;;;;13.18;84.80;96308.59;1721433;81;21016;-81
2021/08/29 01:16:32;;;;;;;4.03;3.20;;;;;;;13.20;84.90;96310.48;1729595;81;21018;-81
2021/08/29 01:18:59;;;;;;;4.35;3.02;;;;;;;13.18;85.01;96303.87;1731984;81;21092;-81
2021/08/29 01:21:30;;;;;;;4.08;2.87;;;;;;;13.18;85.07;96304.67;1723889;82;20980;-82
2021/08/29 01:24:00;;;;;;;4.67;2.80;;;;;;;13.18;84.79;96304.67;1718028;82;21352;-81
2021/08/29 01:26:45;;;;;;;5.83;2.80;;;;;;;13.16;84.58;96305.81;1722896;82;21122;-81
2021/08/29 01:29:12;;;;;;;3.62;2.55;;;;;;;13.14;84.65;96302.11;1708427;82;21013;-81
2021/08/29 01:31:39;;;;;;;3.52;2.70;;;;;;;13.11;84.43;96300.41;1685103;83;21019;-81
2021/08/29 01:34:08;;;;;;;5.28;3.05;;;;;;;13.03;84.71;96292.28;1710255;82;21027;-81
2021/08/29 01:36:36;;;;;;;3.60;2.72;;;;;;;13.05;84.83;96295.49;1706135;82;21017;-81
2021/08/29 01:39:04;;;;;;;3.87;2.72;;;;;;;13.08;84.91;96294.28;1707198;82;21036;-82
2021/08/29 01:41:31;;;;;;;4.85;3.22;;;;;;;13.09;84.83;96293.28;1708170;82;21047;-82
2021/08/29 01:43:57;;;;;;;4.30;3.50;;;;;;;13.09;84.87;96290.17;1720151;82;21074;-82
2021/08/29 01:46:23;;;;;;;4.92;4.30;;;;;;;13.11;84.88;96293.38;1711858;82;21016;-81
2021/08/29 01:48:49;;;;;;;8.18;5.47;;;;;;;13.13;84.92;96286.66;1705538;82;21041;-82
2021/08/29 01:51:15;;;;;;;6.28;4.17;;;;;;;13.09;84.78;96288.06;1713745;82;21015;-81
2021/08/29 01:53:41;;;;;;;6.45;4.28;;;;;;;13.05;84.88;96292.08;1708251;82;21145;-82
2021/08/29 01:56:07;;;;;;;4.97;3.27;;;;;;;13.01;85.09;96289.55;1731104;81;21492;-81
2021/08/29 01:58:33;;;;;;;3.70;2.75;;;;;;;13.02;85.09;96287.27;1701101;82;21003;-81
2021/08/29 02:01:02;;;;;;;4.65;3.12;;;;;;;13.01;84.99;96285.63;1706205;82;21085;-81
2021/08/29 02:03:29;;;;;;;4.15;2.65;;;;;;;12.97;84.98;96283.93;1737047;81;21081;-81
2021/08/29 02:06:11;;;;;;;5.45;3.33;;;;;;;13.02;85.14;96279.45;1722907;81;22102;-81
2021/08/29 02:08:39;;;;;;;4.17;3.45;;;;;;;13.04;85.16;96276.13;1712789;81;21034;-82
2021/08/29 02:11:05;;;;;;;4.65;3.17;;;;;;;13.06;85.28;96278.84;1729120;81;21021;-81
2021/08/29 02:13:31;;;;;;;4.95;3.02;;;;;;;13.06;85.40;96272.31;1723033;81;21346;-82
2021/08/29 02:16:08;;;;;;;4.72;3.42;;;;;;;13.07;85.37;96273.13;1712856;82;21150;-82
2021/08/29 02:18:34;;;;;;;6.65;3.35;;;;;;;13.05;85.30;96275.93;1704886;82;21057;-81
2021/08/29 02:21:00;;;;;;;4.87;3.37;;;;;;;13.07;85.56;96272.62;1731999;81;21628;-81
2021/08/29 02:23:27;;;;;;;6.47;3.87;;;;;;;13.12;85.77;96273.31;1737445;81;21137;-81
2021/08/29 02:25:53;;;;;;;5.80;4.05;;;;;;;13.16;85.81;96267.48;1745568;81;21538;-81
2021/08/29 02:28:19;;;;;;;6.35;4.80;;;;;;;13.22;85.64;96268.55;1723739;81;21071;-81
2021/08/29 02:30:44;;;;;;;5.00;4.40;;;;;;;13.23;85.82;96264.93;1733983;81;20995;-81
2021/08/29 02:33:11;;;;;;;6.55;5.22;;;;;;;13.23;85.90;96271.45;1734874;81;21086;-81
2021/08/29 02:35:38;;;;;;;6.30;4.45;;;;;;;13.24;85.94;96265.73;1742762;81;21084;-81
2021/08/29 02:38:03;;;;;;;6.70;4.72;;;;;;;13.27;85.92;96262.72;1713535;81;20993;-81
2021/08/29 02:40:33;;;;;;;7.85;4.60;;;;;;;13.30;85.85;96262.31;1733873;81;21378;-81
2021/08/29 02:42:58;;;;;;;7.17;4.60;;;;;;;13.35;85.84;96270.36;1729267;81;21007;-81
2021/08/29 02:45:24;;;;;;;6.95;4.95;;;;;;;13.38;85.83;96271.25;1732473;81;21501;-81
2021/08/29 02:47:51;;;;;;;7.50;5.17;;;;;;;13.40;85.75;96271.34;1735147;81;21038;-81
2021/08/29 02:50:16;;;;;;;7.75;4.78;;;;;;;13.41;85.73;96278.17;1716670;81;21448;-81
2021/08/29 02:52:42;;;;;;;9.20;5.15;;;;;;;13.41;85.92;96278.17;1709062;83;21080;-81
2021/08/29 02:55:09;;;;;;;6.62;4.67;;;;;;;13.44;85.77;96275.66;1712801;81;20983;-81
2021/08/29 02:57:35;;;;;;;6.92;5.20;;;;;;;13.44;85.68;96272.54;1681678;83;21043;-81
2021/08/29 03:00:01;;;;;;;6.15;4.60;;;;;;;13.45;85.75;96269.42;1706898;83;20976;-81
2021/08/29 03:02:28;;;;;;;6.33;4.42;;;;;;;13.46;85.66;96266.61;1733148;81;21026;-81
2021/08/29 03:04:54;;;;;;;6.95;4.83;;;;;;;13.45;85.58;96266.31;1713815;82;21011;-82
2021/08/29 03:07:20;;;;;;;6.33;4.72;;;;;;;13.43;85.68;96265.72;1718717;82;21041;-81
2021/08/29 03:09:46;;;;;;;5.72;5.00;;;;;;;13.42;85.83;96270.64;1715455;82;21090;-82
2021/08/29 03:12:13;;;;;;;8.58;5.35;;;;;;;13.43;85.90;96269.63;1718482;82;20962;-82
2021/08/29 03:14:39;;;;;;;7.72;5.58;;;;;;;13.48;86.02;96272.94;1718936;82;21081;-82
2021/08/29 03:17:06;;;;;;;8.65;5.50;;;;;;;13.51;86.04;96275.16;1712797;82;21036;-82
2021/08/29 03:19:33;;;;;;;8.20;5.47;;;;;;;13.54;85.83;96274.75;1715119;82;21011;-82
2021/08/29 03:21:59;;;;;;;6.67;5.62;;;;;;;13.55;85.99;96272.44;1712774;82;21457;-82
2021/08/29 03:24:25;;;;;;;7.28;5.45;;;;;;;13.57;85.83;96266.52;1716199;82;21019;-82
2021/08/29 03:26:51;;;;;;;6.55;5.25;;;;;;;13.61;85.89;96271.63;1710265;82;21046;-82
2021/08/29 03:29:18;;;;;;;6.97;5.20;;;;;;;13.62;85.83;96271.92;1720396;82;21064;-82
2021/08/29 03:31:44;;;;;;;7.85;5.50;;;;;;;13.64;85.83;96269.10;1745990;81;21004;-82
2021/08/29 03:34:13;;;;;;;8.45;6.22;;;;;;;13.65;85.75;96274.12;1726037;81;21013;-82
2021/08/29 03:36:41;;;;;;;9.10;5.87;;;;;;;13.64;85.58;96269.91;1718069;82;21024;-82
2021/08/29 03:39:06;;;;;;;8.83;5.70;;;;;;;13.59;85.61;96272.83;1713354;82;21018;-83
2021/08/29 03:41:32;;;;;;;7.50;5.58;;;;;;;13.57;85.66;96271.73;1733265;81;21398;-83
2021/08/29 03:43:59;;;;;;;8.43;5.97;;;;;;;13.55;85.90;96278.97;1730475;81;20980;-83
2021/08/29 03:46:25;;;;;;;8.18;6.25;;;;;;;13.53;85.77;96274.45;1740669;81;21106;-82
2021/08/29 03:48:51;;;;;;;8.65;6.10;;;;;;;13.51;85.84;96271.25;1740629;81;20998;-83
2021/08/29 03:51:17;;;;;;;8.80;5.90;;;;;;;13.51;85.96;96279.88;1736087;81;22008;-82
2021/08/29 03:53:43;;;;;;;9.55;6.60;;;;;;;13.50;85.82;96284.80;1688985;81;21032;-83
2021/08/29 03:56:11;;;;;;;9.45;6.60;;;;;;;13.39;86.05;96288.52;1717375;82;21007;-83
2021/08/29 03:58:39;;;;;;;10.75;6.47;;;;;;;13.40;86.35;96294.84;1741577;81;21398;-83
2021/08/29 04:01:06;;;;;;;8.35;5.72;;;;;;;13.36;86.44;96299.36;1708214;83;21005;-83
2021/08/29 04:03:32;;;;;;;10.38;6.12;;;;;;;13.39;86.33;96296.34;1733888;81;21000;-83
2021/08/29 04:06:03;;;;;;;7.42;6.08;;;;;;;13.36;86.27;96292.84;1699696;81;21051;-82
2021/08/29 04:08:32;;;;;;;9.30;6.70;;;;;;;13.34;86.14;96281.77;1725535;81;21029;-83
2021/08/29 04:10:59;;;;;;;6.95;5.30;;;;;;;13.30;86.28;96278.77;1725859;81;21051;-82
2021/08/29 04:13:26;;;;;;;9.13;6.08;;;;;;;13.26;86.24;96274.95;1734522;81;20984;-82
2021/08/29 04:15:52;;;;;;;5.80;4.08;;;;;;;13.26;86.41;96278.88;1716297;82;21145;-83
2021/08/29 04:18:20;;;;;;;4.60;4.03;;;;;;;13.17;86.41;96262.57;1713426;82;21081;-82
2021/08/29 04:20:46;;;;;;;3.52;3.00;;;;;;;13.30;86.36;96273.55;1731979;81;20986;-82
2021/08/29 04:23:12;;;;;;;4.58;2.95;;;;;;;13.36;86.17;96273.27;1723855;82;21415;-82
2021/08/29 04:25:39;;;;;;;3.50;3.15;;;;;;;13.39;85.88;96270.25;1728564;81;21077;-82
2021/08/29 04:28:05;;;;;;;3.55;2.70;;;;;;;13.40;85.77;96268.73;1733037;81;21042;-82
2021/08/29 04:30:32;;;;;;;4.08;3.00;;;;;;;13.41;85.88;96277.37;1708334;82;21088;-82
2021/08/29 04:32:58;;;;;;;4.10;2.90;;;;;;;13.35;85.28;96273.77;1698227;82;21005;-82
2021/08/29 04:35:23;;;;;;;3.72;3.20;;;;;;;13.28;85.39;96272.95;1712637;82;21407;-82
2021/08/29 04:37:51;;;;;;;4.22;3.35;;;;;;;13.25;85.44;96271.25;1700904;83;21026;-83
2021/08/29 04:40:17;;;;;;;5.65;4.20;;;;;;;13.26;85.61;96273.66;1735322;81;21118;-82
2021/08/29 04:42:43;;;;;;;5.67;4.05;;;;;;;13.25;85.44;96272.55;1721934;82;20972;-83
2021/08/29 04:45:09;;;;;;;5.45;4.35;;;;;;;13.19;85.50;96268.45;1729119;81;21019;-82
2021/08/29 04:47:36;;;;;;;4.40;3.22;;;;;;;13.15;85.70;96267.69;1735951;81;21453;-83
2021/08/29 04:50:02;;;;;;;3.37;2.72;;;;;;;13.13;85.83;96259.27;1727876;81;21065;-82
2021/08/29 04:52:29;;;;;;;2.85;2.27;;;;;;;13.13;85.84;96250.94;1724331;81;21052;-82
2021/08/29 04:54:55;;;;;;;3.33;2.62;;;;;;;13.12;85.43;96251.94;1732978;81;21025;-83
2021/08/29 04:57:21;;;;;;;3.92;2.45;;;;;;;13.08;85.38;96253.35;1700598;82;21125;-83
2021/08/29 04:59:47;;;;;;;5.08;4.08;;;;;;;13.05;85.58;96249.05;1706516;83;21063;-83
2021/08/29 05:02:12;;;;;;;7.12;4.78;;;;;;;13.02;85.80;96257.27;1708972;82;21059;-82
2021/08/29 05:04:38;;;;;;;7.03;4.33;;;;;;;12.95;86.13;96259.86;1738299;81;21473;-83
2021/08/29 05:07:04;;;;;;;5.78;4.35;;;;;;;12.90;86.27;96257.86;1722328;81;20999;-82
2021/08/29 05:09:30;;;;;;;6.55;4.28;;;;;;;12.90;86.19;96270.89;1719919;81;20990;-82
2021/08/29 05:11:56;;;;;;;5.80;4.40;;;;;;;12.86;86.23;96269.69;1740255;81;21078;-82
2021/08/29 05:14:21;;;;;;;5.47;4.95;;;;;;;12.89;86.43;96267.19;1714996;81;20994;-82
2021/08/29 05:16:47;;;;;;;6.58;4.42;;;;;;;12.90;86.45;96269.59;1715191;82;21016;-82
2021/08/29 05:19:13;;;;;;;6.28;3.87;;;;;;;12.95;86.67;96274.70;1714337;81;21509;-83
2021/08/29 05:21:39;;;;;;;6.87;4.83;;;;;;;13.04;86.84;96273.52;1723634;81;21074;-82
2021/08/29 05:24:05;;;;;;;5.75;5.17;;;;;;;13.04;86.65;96272.22;1723783;81;20998;-82
2021/08/29 05:26:31;;;;;;;8.15;5.62;;;;;;;13.06;86.80;96272.81;1718576;82;21041;-82
2021/08/29 05:28:57;;;;;;;5.90;4.90;;;;;;;13.10;86.81;96275.32;1740522;81;21007;-82
2021/08/29 05:31:22;;;;;;;7.35;5.67;;;;;;;13.14;86.82;96272.11;1712017;81;20964;-82
2021/08/29 05:33:48;;;;;;;7.45;6.22;;;;;;;13.20;86.71;96272.66;1718153;81;21389;-82
2021/08/29 05:36:14;;;;;;;8.58;6.80;;;;;;;13.21;86.49;96274.27;1736428;81;21011;-82
2021/08/29 05:38:40;;;;;;;8.80;6.90;;;;;;;13.16;86.48;96275.81;1736753;81;21127;-82
2021/08/29 05:41:05;;;;;;;7.90;7.00;;;;;;;13.08;86.28;96275.53;1738908;81;21052;-82
2021/08/29 05:43:31;;;;;;;9.70;6.33;;;;;;;13.10;86.53;96281.84;1723549;82;22378;-82
2021/08/29 05:45:57;;;;;;;7.37;6.12;;;;;;;13.12;86.53;96281.14;1723538;81;21029;-82
2021/08/29 05:48:22;;;;;;;7.78;6.97;;;;;;;13.16;86.57;96277.92;1739748;81;21074;-82
2021/08/29 05:50:48;;;;;;;6.45;5.50;;;;;;;13.15;86.18;96278.92;1741621;81;21841;-82
2021/08/29 05:53:14;;;;;;;5.58;4.95;;;;;;;13.16;86.20;96272.70;1735272;81;21101;-82
2021/08/29 05:55:40;;;;;;;7.55;5.25;;;;;;;13.13;86.01;96270.50;1710331;82;20998;-82
2021/08/29 05:58:05;;;;;;;17.67;16.02;;;;;;;13.11;86.37;96272.52;1695718;82;21504;-82
2021/08/29 06:00:31;;;;;;;10.10;9.03;;;;;;;13.18;86.38;96270.76;1708420;83;21034;-82
2021/08/29 06:02:58;;;;;;;7.25;6.20;;;;;;;13.18;86.45;96267.34;1705297;83;21060;-82
2021/08/29 06:05:24;;;;;;;6.40;4.33;;;;;;;13.23;86.21;96267.54;1724464;81;21420;-82
2021/08/29 06:07:49;;;;;;;4.08;3.42;;;;;;;13.21;86.15;96270.86;1733766;81;21082;-82
2021/08/29 06:10:15;;;;;;;5.25;3.45;;;;;;;13.20;85.79;96267.95;1701497;83;21374;-82
2021/08/29 06:12:41;;;;;;;5.62;3.95;;;;;;;13.17;85.82;96263.88;1704877;83;20995;-82
2021/08/29 06:15:07;;;;;;;4.40;3.12;;;;;;;13.20;86.29;96264.84;1734121;81;21015;-82
2021/08/29 06:17:33;;;;;;;3.85;3.45;;;;;;;13.24;86.23;96261.31;1704399;83;21026;-82
2021/08/29 06:20:00;;;;;;;3.77;3.22;;;;;;;13.31;86.48;96260.80;1738246;81;21087;-82
2021/08/29 06:22:25;;;;;;;3.90;3.42;;;;;;;13.41;86.50;96257.30;1723517;83;20996;-82
2021/08/29 06:24:51;;;;;;;4.10;3.30;;;;;;;13.50;86.58;96261.78;1721034;82;20995;-82
2021/08/29 06:27:17;;;;;;;4.20;3.47;;;;;;;13.58;86.65;96260.79;1742928;81;20983;-82
2021/08/29 06:29:42;;;;;;;5.10;3.50;;;;;;;13.68;86.86;96265.10;1723108;82;20984;-82
2021/08/29 06:32:08;;;;;;;4.03;3.08;;;;;;;13.74;87.00;96259.85;1721707;81;21010;-82
2021/08/29 06:34:34;;;;;;;4.95;3.25;;;;;;;13.77;86.58;96265.16;1708975;83;21016;-82
2021/08/29 06:37:00;;;;;;;4.17;3.67;;;;;;;13.84;86.89;96259.95;1729761;81;20952;-82
2021/08/29 06:39:26;;;;;;;1.00;0.82;;;;;;;13.95;86.81;96257.98;1706480;81;21051;-82
2021/08/29 06:41:52;;;;;;;1.40;0.40;;;;;;;14.02;86.51;96255.67;1705147;82;21063;-82
2021/08/29 06:44:18;;;;;;;0.68;0.68;;;;;;;14.05;86.23;96257.86;1705226;82;21065;-82
2021/08/29 06:46:44;;;;;;;1.05;0.80;;;;;;;14.10;85.87;96256.73;1687150;82;21089;-82
2021/08/29 06:49:10;;;;;;;0.85;0.70;;;;;;;14.17;86.09;96254.11;1725669;82;21607;-82
2021/08/29 06:51:35;;;;;;;0.50;0.35;;;;;;;14.24;85.86;96251.46;1717765;82;21086;-82
2021/08/29 06:54:03;;;;;;;0.72;0.37;;;;;;;14.28;85.90;96244.80;1738892;81;21043;-82
2021/08/29 06:56:29;;;;;;;0.80;0.50;;;;;;;14.32;85.82;96241.59;1719623;82;21391;-81
2021/08/29 06:58:54;;;;;;;0.50;0.40;;;;;;;14.40;85.98;96247.06;1717090;82;20995;-82
2021/08/29 07:01:20;;;;;;;0.85;0.33;;;;;;;14.41;85.47;96239.02;1735267;81;20976;-82
2021/08/29 07:03:46;;;;;;;1.62;0.53;;;;;;;14.44;85.73;96244.36;1688561;82;21063;-81
2021/08/29 07:06:12;;;;;;;0.60;0.40;;;;;;;14.49;85.71;96240.62;1715916;82;21432;-82
2021/08/29 07:08:39;;;;;;;1.02;0.60;;;;;;;14.55;85.65;96242.39;1723038;82;21072;-81
2021/08/29 07:11:05;;;;;;;1.45;0.50;;;;;;;14.64;85.63;96248.16;1717839;82;21071;-82
2021/08/29 07:13:31;;;;;;;2.90;0.80;;;;;;;14.70;85.38;96247.34;1723713;82;21062;-82
2021/08/29 07:15:58;;;;;;;2.12;1.20;;;;;;;14.76;85.09;96249.11;1720958;82;21071;-82
2021/08/29 07:18:23;;;;;;;2.95;2.12;;;;;;;14.75;84.80;96250.13;1729605;82;22140;-82
2021/08/29 07:20:49;;;;;;;2.15;1.47;;;;;;;14.64;84.07;96250.30;1692832;82;21078;-81
2021/08/29 07:23:17;;;;;;;3.02;2.00;;;;;;;14.51;84.39;96246.45;1709748;82;21096;-81
2021/08/29 07:25:44;;;;;;;3.40;2.75;;;;;;;14.49;84.65;96251.09;1679667;84;21415;-82
2021/08/29 07:28:10;;;;;;;3.52;3.17;;;;;;;14.42;84.46;96249.77;1710497;82;21216;-81
2021/08/29 07:30:35;;;;;;;2.58;2.37;;;;;;;14.39;84.18;96250.69;1699640;82;21051;-81
2021/08/29 07:33:01;;;;;;;3.60;2.72;;;;;;;14.37;84.08;96248.80;1705425;82;21464;-81
2021/08/29 07:35:27;;;;;;;3.80;2.45;;;;;;;14.32;84.16;96245.51;1710240;82;21091;-81
2021/08/29 07:37:52;;;;;;;4.08;2.67;;;;;;;14.28;83.96;96246.11;1709522;83;21102;-81
2021/08/29 07:40:19;;;;;;;3.60;2.30;;;;;;;14.28;84.13;96247.42;1710316;82;21072;-81
2021/08/29 07:42:47;;;;;;;3.35;2.33;;;;;;;14.31;83.85;96247.80;1705406;82;21396;-80
2021/08/29 07:45:14;;;;;;;3.47;2.20;;;;;;;14.34;83.58;96250.02;1718179;82;21059;-81
2021/08/29 07:47:39;;;;;;;2.75;2.35;;;;;;;14.39;83.13;96246.77;1704440;82;20999;-81
2021/08/29 07:50:06;;;;;;;2.40;2.20;;;;;;;14.42;83.29;96244.53;1690474;82;20963;-81
2021/08/29 07:52:32;;;;;;;2.10;1.90;;;;;;;14.48;83.15;96242.13;1718130;82;21115;-81
2021/08/29 07:54:58;;;;;;;3.17;1.72;;;;;;;14.55;83.34;96239.78;1703183;82;21218;-81
2021/08/29 07:57:24;;;;;;;3.70;2.17;;;;;;;14.61;82.45;96245.47;1709254;82;21088;-81
2021/08/29 07:59:50;;;;;;;2.67;2.30;;;;;;;14.70;82.82;96247.34;1709648;82;21422;-81
2021/08/29 08:02:16;;;;;;;2.60;2.40;;;;;;;14.84;83.39;96246.77;1711758;81;21019;-81
2021/08/29 08:04:43;;;;;;;3.02;2.50;;;;;;;14.96;82.92;96248.97;1696762;83;20987;-81
2021/08/29 08:07:10;;;;;;;3.85;2.92;;;;;;;15.00;82.76;96244.43;1695732;83;21089;-81
2021/08/29 08:09:36;;;;;;;3.90;3.25;;;;;;;15.00;82.33;96249.66;1674815;82;21039;-80
2021/08/29 08:12:02;;;;;;;3.55;3.00;;;;;;;15.02;82.20;96250.76;1710869;82;21047;-81
2021/08/29 08:14:27;;;;;;;3.95;3.50;;;;;;;15.07;81.64;96248.80;1710886;82;21060;-81
2021/08/29 08:16:53;;;;;;;3.77;2.52;;;;;;;15.13;82.44;96256.63;1713510;82;21007;-82
2021/08/29 08:19:19;;;;;;;3.98;2.92;;;;;;;15.09;79.77;96258.04;1709713;82;21450;-81
2021/08/29 08:21:45;;;;;;;3.25;2.50;;;;;;;14.91;79.39;96256.66;1719364;83;20975;-81
2021/08/29 08:24:11;;;;;;;3.52;2.83;;;;;;;14.81;80.20;96258.45;1716126;81;20991;-81
2021/08/29 08:26:36;;;;;;;2.90;2.35;;;;;;;14.88;81.65;96258.39;1709998;83;21108;-81
2021/08/29 08:29:02;;;;;;;3.92;2.80;;;;;;;15.08;80.89;96259.05;1748136;81;21094;-81
2021/08/29 08:31:28;;;;;;;3.17;2.87;;;;;;;15.14;81.25;96261.34;1723221;81;20967;-81
2021/08/29 08:33:54;;;;;;;3.80;2.95;;;;;;;15.23;82.16;96266.09;1668784;82;21051;-81
2021/08/29 08:36:20;;;;;;;4.17;2.90;;;;;;;15.39;82.82;96268.68;1724650;81;21085;-81
2021/08/29 08:38:45;;;;;;;2.40;2.20;;;;;;;15.51;82.66;96269.59;1747996;81;21066;-81
2021/08/29 08:41:11;;;;;;;2.85;2.42;;;;;;;15.54;82.32;96269.16;1725199;81;21001;-81
2021/08/29 08:43:37;;;;;;;3.10;2.50;;;;;;;15.62;82.71;96269.44;1720646;82;21433;-81
2021/08/29 08:46:03;;;;;;;3.33;2.50;;;;;;;15.71;82.32;96266.02;1724955;81;21011;-81
2021/08/29 08:48:29;;;;;;;3.52;2.72;;;;;;;15.75;82.19;96269.28;1696486;83;21067;-81
2021/08/29 08:50:55;;;;;;;3.00;2.70;;;;;;;15.83;82.67;96261.67;1705033;82;21090;-81
2021/08/29 08:53:23;;;;;;;3.72;3.00;;;;;;;15.89;82.53;96258.97;1726058;81;21045;-81
2021/08/29 08:55:50;;;;;;;2.62;2.37;;;;;;;15.94;82.25;96262.23;1753073;81;20972;-81
2021/08/29 08:58:16;;;;;;;4.87;4.37;;;;;;;16.02;82.21;96260.65;1729310;81;21106;-81
2021/08/29 09:00:44;;;;;;;4.20;3.80;;;;;;;16.11;82.09;96259.35;1738514;81;21385;-81
2021/08/29 09:03:09;;;;;;;5.53;3.92;;;;;;;16.16;81.50;96260.80;1713927;81;21018;-81
2021/08/29 09:05:38;;;;;;;5.17;4.05;;;;;;;16.21;81.50;96266.17;1736210;81;21039;-81
2021/08/29 09:08:07;;;;;;;5.83;4.33;;;;;;;16.19;81.52;96265.59;1718356;82;21825;-81
2021/08/29 09:10:33;;;;;;;5.40;4.10;;;;;;;16.14;81.11;96272.02;1715706;82;21089;-81
2021/08/29 09:13:04;;;;;;;5.05;3.67;;;;;;;16.06;81.21;96274.91;1717259;82;21047;-81
2021/08/29 09:15:30;;;;;;;5.35;4.30;;;;;;;16.07;81.70;96266.53;1721690;82;21039;-81
2021/08/29 09:17:57;;;;;;;5.30;4.80;;;;;;;16.07;81.49;96259.47;1718089;82;21370;-81
2021/08/29 09:20:25;;;;;;;8.40;5.72;;;;;;;16.09;81.46;96260.05;1715139;81;21133;-81
2021/08/29 09:22:56;;;;;;;7.78;6.95;;;;;;;16.11;81.39;96255.93;1735421;81;21039;-81
2021/08/29 09:25:25;;;;;;;6.92;6.00;;;;;;;16.18;81.35;96253.52;1714333;82;21067;-81
2021/08/29 09:27:54;;;;;;;7.10;5.50;;;;;;;16.23;81.47;96256.77;1718753;82;21070;-81
2021/08/29 09:30:21;;;;;;;9.88;7.85;;;;;;;16.24;80.99;96249.70;1720954;83;21075;-81
2021/08/29 09:33:00;;;;;;;8.33;7.50;;;;;;;16.19;79.09;96258.23;1720328;82;21595;-81
2021/08/29 09:35:30;;;;;;;8.80;7.92;;;;;;;16.06;79.17;96254.45;1708505;82;21023;-81
2021/08/29 09:37:56;;;;;;;8.20;7.28;;;;;;;16.09;79.51;96247.45;1722813;83;21373;-81
2021/08/29 09:40:28;;;;;;;9.68;6.70;;;;;;;16.15;80.24;96249.22;1715819;82;21027;-81
2021/08/29 09:42:55;;;;;;;7.25;6.55;;;;;;;16.16;80.86;96244.27;1712056;82;21505;-81
2021/08/29 09:45:28;;;;;;;7.47;6.78;;;;;;;16.20;81.30;96230.49;1733217;81;21026;-81
2021/08/29 09:48:05;;;;;;;8.10;7.30;;;;;;;16.25;81.46;96231.13;1736305;81;21048;-81
2021/08/29 09:50:34;;;;;;;8.58;7.35;;;;;;;16.25;81.09;96230.34;1711535;83;21009;-81
2021/08/29 09:53:09;;;;;;;8.55;7.75;;;;;;;16.27;81.40;96222.56;1701623;82;21048;-81
2021/08/29 09:55:41;;;;;;;9.10;8.20;;;;;;;16.31;81.64;96218.47;1731767;83;21084;-81
2021/08/29 09:58:31;;;;;;;8.88;7.97;;;;;;;16.36;81.85;96215.98;1675939;84;21413;-81
2021/08/29 10:01:13;;;;;;;9.48;8.50;;;;;;;16.39;81.47;96212.11;1708499;82;20999;-81
2021/08/29 10:03:47;;;;;;;;;;;;;;;16.32;80.38;96212.72;1725813;81;21060;-81
2021/08/29 10:06:26;;;;;;;14.65;11.75;;;;;;;16.36;80.08;96213.36;1715474;82;20776;-81
2021/08/29 10:08:58;;;;;;;12.47;11.20;;;;;;;16.30;79.35;96213.45;1722492;81;21027;-81
2021/08/29 10:11:26;;;;;;;14.30;12.85;;;;;;;16.32;79.34;96212.72;1694524;83;21019;-81
2021/08/29 10:13:52;;;;;;;12.82;11.53;;;;;;;16.29;78.37;96211.34;1698743;83;21077;-81
2021/08/29 10:16:19;;;;;;;11.93;10.72;;;;;;;16.34;79.30;96205.42;1741737;81;21089;-81
2021/08/29 10:18:50;;;;;;;12.30;11.10;;;;;;;16.51;79.36;96201.95;1717651;82;21391;-81
2021/08/29 10:21:18;;;;;;;11.40;10.23;;;;;;;16.64;79.04;96208.05;1693568;83;21008;-81
2021/08/29 10:23:47;;;;;;;12.05;10.85;;;;;;;16.77;80.67;96196.09;1732867;81;21039;-81
2021/08/29 10:26:16;;;;;;;10.93;9.83;;;;;;;16.84;77.96;96194.15;1702813;83;21126;-81
2021/08/29 10:29:04;;;;;;;10.82;9.73;;;;;;;16.73;76.57;96200.95;1705022;83;21147;-81
2021/08/29 10:31:35;;;;;;;13.70;11.80;;;;;;;16.61;77.88;96204.05;1698640;83;21027;-81
2021/08/29 10:34:01;;;;;;;12.78;11.30;;;;;;;16.47;77.71;96193.45;1706553;82;21072;-81
2021/08/29 10:36:26;;;;;;;13.43;12.03;;;;;;;16.62;78.16;96187.29;1712220;82;21021;-81
2021/08/29 10:38:53;;;;;;;13.53;12.13;;;;;;;16.90;78.34;96195.86;1726643;81;21035;-81
2021/08/29 10:41:21;;;;;;;12.63;10.82;;;;;;;16.96;77.67;96190.24;1741638;81;21043;-81
2021/08/29 10:43:48;;;;;;;11.35;10.23;;;;;;;16.92;78.60;96189.90;1714388;83;21405;-81
2021/08/29 10:46:15;;;;;;;10.18;9.18;;;;;;;16.91;77.08;96181.71;1721248;81;21011;-81
2021/08/29 10:48:44;;;;;;;9.60;8.60;;;;;;;16.99;79.06;96183.22;1705321;81;21023;-81
2021/08/29 10:51:10;;;;;;;9.63;8.80;;;;;;;17.04;79.39;96180.20;1734393;81;20988;-81
2021/08/29 10:53:43;;;;;;;10.80;7.85;;;;;;;17.15;79.16;96180.44;1731793;81;21040;-81
2021/08/29 10:56:18;;;;;;;9.30;8.50;;;;;;;17.18;79.64;96173.42;1740270;81;21448;-81
2021/08/29 10:58:46;;;;;;;9.78;8.75;;;;;;;17.23;78.97;96175.63;1748062;81;21046;-81
2021/08/29 11:01:37;;;;;;;10.32;9.08;;;;;;;17.23;79.28;96182.20;1745030;81;21419;-81
2021/08/29 11:04:30;;;;;;;10.80;9.47;;;;;;;17.18;79.12;96182.61;1742323;81;22269;-81
2021/08/29 11:06:59;;;;;;;;;;;;;;;17.09;78.99;96176.91;1749473;81;21947;-81
2021/08/29 11:09:43;;;;;;;10.30;9.30;;;;;;;16.94;78.95;96176.55;1751077;81;20091;-81
2021/08/29 11:12:23;;;;;;;9.98;8.65;;;;;;;16.78;78.51;96172.76;1694427;83;21360;-81
2021/08/29 11:14:54;;;;;;;9.18;7.97;;;;;;;16.77;79.84;96168.53;1719893;81;21070;-81
2021/08/29 11:17:26;;;;;;;9.35;8.40;;;;;;;16.78;80.07;96172.24;1727440;81;20983;-82
2021/08/29 11:19:55;;;;;;;11.40;8.55;;;;;;;16.84;80.58;96169.73;1729194;82;21087;-82
2021/08/29 11:22:23;;;;;;;9.70;8.80;;;;;;;16.95;80.33;96175.52;1718003;81;21083;-82
2021/08/29 11:25:01;;;;;;;9.10;8.23;;;;;;;16.98;80.80;96169.30;1737192;81;21022;-81
2021/08/29 11:27:47;;;;;;;12.63;10.72;;;;;;;17.09;80.70;96162.47;1747448;81;21115;-81
2021/08/29 11:30:15;;;;;;;11.00;9.63;;;;;;;17.31;79.34;96160.86;1720694;82;21083;-81
2021/08/29 11:33:02;;;;;;;10.20;9.08;;;;;;;17.62;79.48;96158.89;1722042;82;21028;-81